Time;durP1;ratioP1;P1;durP2;ratioP2;P2;SDS_P1;SDS_P2;PMS_P1;PMS_P2;Temp;Humidity;BMP_temperature;BMP_pressure;BME280_temperature;BME280_humidity;BME280_pressure;Samples;Min_cycle;Max_cycle;Signal;HPM_P1;HPM_P2
2021/08/19 00:04:12;;;;;;;12.70;8.23;;;;;;;14.63;76.96;100114.28;8491546;33;20433;-72
2021/08/19 00:09:15;;;;;;;16.02;9.95;;;;;;;14.66;77.00;100112.09;8492540;33;20523;-72
2021/08/19 00:14:18;;;;;;;13.50;9.70;;;;;;;14.57;77.95;100118.47;8494625;33;20477;-72
2021/08/19 00:19:23;;;;;;;16.75;10.52;;;;;;;14.61;77.54;100111.72;8494457;33;20426;-72
2021/08/19 00:24:26;;;;;;;17.15;9.82;;;;;;;14.53;77.60;100114.38;8502714;33;20692;-72
2021/08/19 00:29:29;;;;;;;16.20;9.75;;;;;;;14.45;77.81;100107.03;8505616;33;20152;-72
2021/08/19 00:34:33;;;;;;;16.73;10.18;;;;;;;14.60;77.16;100101.94;8494535;33;20473;-72
2021/08/19 00:39:38;;;;;;;16.17;10.02;;;;;;;14.67;76.98;100104.84;8493510;33;20884;-74
2021/08/19 00:44:44;;;;;;;16.98;10.00;;;;;;;14.52;77.66;100097.31;8496620;33;20435;-72
2021/08/19 00:49:48;;;;;;;13.98;8.80;;;;;;;14.52;77.32;100101.88;8492508;33;20812;-72
2021/08/19 00:54:51;;;;;;;15.82;10.02;;;;;;;14.50;77.34;100103.88;8491776;33;20460;-71
2021/08/19 00:59:55;;;;;;;17.85;9.32;;;;;;;14.54;76.67;100102.56;8503743;33;20520;-72
2021/08/19 01:04:59;;;;;;;13.90;8.27;;;;;;;14.63;75.97;100100.78;8502128;33;20231;-72
2021/08/19 01:10:06;;;;;;;14.07;7.80;;;;;;;14.49;75.66;100102.19;8495837;33;20137;-72
2021/08/19 01:15:11;;;;;;;13.75;8.32;;;;;;;14.41;76.05;100096.72;8496679;33;20530;-71
2021/08/19 01:20:15;;;;;;;13.00;7.53;;;;;;;14.42;75.58;100099.25;8504226;33;20536;-73
2021/08/19 01:25:18;;;;;;;14.13;7.40;;;;;;;14.38;75.37;100098.72;8493605;33;20421;-73
2021/08/19 01:30:26;;;;;;;12.75;7.20;;;;;;;14.34;74.57;100094.63;8496314;33;20517;-72
2021/08/19 01:35:30;;;;;;;11.02;6.93;;;;;;;14.53;73.85;100104.41;8501595;33;20323;-73
2021/08/19 01:40:33;;;;;;;9.70;6.65;;;;;;;14.47;74.74;100099.63;8498201;33;20540;-72
2021/08/19 01:45:38;;;;;;;15.57;7.70;;;;;;;14.43;75.00;100110.94;8502737;33;20460;-72
2021/08/19 01:50:41;;;;;;;11.77;7.40;;;;;;;14.43;75.34;100109.06;8502987;33;20153;-72
2021/08/19 01:55:44;;;;;;;13.25;6.72;;;;;;;14.33;75.69;100109.09;8504481;33;20601;-72
2021/08/19 02:00:49;;;;;;;11.63;7.32;;;;;;;14.52;75.17;100107.28;8508560;33;20433;-71
2021/08/19 02:05:53;;;;;;;13.60;8.82;;;;;;;14.59;75.03;100098.38;8502387;33;20130;-71
2021/08/19 02:10:56;;;;;;;12.98;8.68;;;;;;;14.43;76.97;100090.16;8514536;33;20510;-71
2021/08/19 02:16:01;;;;;;;17.77;10.32;;;;;;;14.28;77.74;100089.81;8521184;33;20571;-71
2021/08/19 02:21:05;;;;;;;14.50;9.98;;;;;;;14.45;77.61;100093.53;8513321;33;20519;-72
2021/08/19 02:26:08;;;;;;;20.65;10.68;;;;;;;14.53;77.76;100093.59;8512196;33;20232;-71
2021/08/19 02:31:12;;;;;;;18.45;12.20;;;;;;;14.64;77.89;100078.13;8526173;33;20149;-71
2021/08/19 02:36:15;;;;;;;18.13;11.15;;;;;;;14.60;78.55;100083.84;8521440;33;20416;-72
2021/08/19 02:41:18;;;;;;;18.80;12.73;;;;;;;14.63;78.88;100071.03;8523286;33;20531;-72
2021/08/19 02:46:23;;;;;;;24.95;13.93;;;;;;;14.59;79.77;100070.50;8524447;33;20505;-71
2021/08/19 02:51:26;;;;;;;23.40;14.77;;;;;;;14.78;79.48;100081.13;8521987;33;20284;-72
2021/08/19 02:56:29;;;;;;;21.38;13.95;;;;;;;14.73;79.94;100071.78;8516947;33;20161;-72
2021/08/19 03:01:33;;;;;;;19.50;13.90;;;;;;;14.32;82.29;100069.59;8516732;33;20156;-73
2021/08/19 03:06:37;;;;;;;25.67;15.13;;;;;;;13.99;83.73;100073.88;8517456;33;20160;-73
2021/08/19 03:11:40;;;;;;;22.55;15.18;;;;;;;14.15;83.40;100067.75;8519326;33;20150;-72
2021/08/19 03:16:44;;;;;;;22.85;13.85;;;;;;;14.03;83.19;100072.53;8502962;33;20157;-72
2021/08/19 03:21:47;;;;;;;23.13;13.25;;;;;;;13.70;83.91;100064.09;8504717;33;20417;-73
2021/08/19 03:26:50;;;;;;;24.00;13.35;;;;;;;14.07;82.75;100064.97;8503531;33;20846;-73
2021/08/19 03:31:55;;;;;;;21.63;12.93;;;;;;;14.02;82.69;100060.06;8510991;33;20460;-73
2021/08/19 03:36:58;;;;;;;21.80;13.73;;;;;;;13.86;82.72;100063.44;8500385;33;20156;-72
2021/08/19 03:42:01;;;;;;;21.90;14.27;;;;;;;14.04;82.00;100066.16;8498891;33;20461;-72
2021/08/19 03:47:06;;;;;;;22.73;13.93;;;;;;;13.93;82.67;100060.94;8499990;33;20612;-72
2021/08/19 03:52:09;;;;;;;23.27;13.50;;;;;;;13.91;82.47;100069.22;8498519;33;20126;-72
2021/08/19 03:57:12;;;;;;;27.83;14.15;;;;;;;13.91;82.39;100071.94;8512055;33;20154;-72
2021/08/19 04:02:16;;;;;;;26.20;15.60;;;;;;;13.96;81.99;100068.78;8507904;33;20185;-72
2021/08/19 04:07:20;;;;;;;22.17;14.75;;;;;;;13.76;82.24;100065.34;8495882;33;20153;-72
2021/08/19 04:12:23;;;;;;;25.65;14.25;;;;;;;13.84;82.37;100072.69;8501190;33;20159;-72
2021/08/19 04:17:27;;;;;;;25.88;15.75;;;;;;;13.64;82.62;100085.47;8496781;33;20156;-72
2021/08/19 04:22:31;;;;;;;27.42;15.68;;;;;;;13.60;83.33;100089.47;8490746;33;20426;-72
2021/08/19 04:27:34;;;;;;;29.77;16.38;;;;;;;13.59;82.69;100082.38;8492749;33;20951;-72
2021/08/19 04:32:38;;;;;;;25.42;14.23;;;;;;;13.53;82.96;100082.97;8509413;27;20854;-73
2021/08/19 04:37:41;;;;;;;26.15;14.68;;;;;;;13.51;83.35;100076.88;8463055;33;20248;-74
2021/08/19 04:42:44;;;;;;;27.08;16.60;;;;;;;13.86;82.34;100092.28;8462556;34;20154;-74
2021/08/19 04:47:48;;;;;;;25.48;14.95;;;;;;;13.94;82.39;100093.22;8462360;34;20153;-73
2021/08/19 04:52:51;;;;;;;25.73;16.65;;;;;;;14.06;81.22;100083.03;8472112;34;20529;-73
2021/08/19 04:57:55;;;;;;;27.92;15.23;;;;;;;14.16;81.29;100083.81;8477786;34;20551;-74
2021/08/19 05:02:59;;;;;;;25.52;14.38;;;;;;;14.15;81.22;100087.53;8482690;34;20192;-73
2021/08/19 05:08:03;;;;;;;23.38;14.23;;;;;;;14.04;81.26;100092.28;8484311;33;20153;-73
2021/08/19 05:13:06;;;;;;;27.70;15.43;;;;;;;14.13;81.27;100096.78;8479996;33;20537;-74
2021/08/19 05:18:11;;;;;;;27.15;15.32;;;;;;;13.88;81.65;100112.72;8470893;34;20642;-74
2021/08/19 05:23:13;;;;;;;25.67;15.32;;;;;;;13.89;81.58;100106.31;8463765;34;20426;-74
2021/08/19 05:28:16;;;;;;;25.13;13.52;;;;;;;13.89;81.55;100102.78;8466360;33;20525;-74
2021/08/19 05:33:21;;;;;;;26.58;14.07;;;;;;;14.24;80.01;100107.34;8466658;34;20522;-74
2021/08/19 05:38:24;;;;;;;24.83;14.18;;;;;;;14.02;80.33;100110.50;8471157;33;20235;-73
2021/08/19 05:43:27;;;;;;;24.52;14.52;;;;;;;14.33;79.44;100114.50;8518195;33;20137;-73
2021/08/19 05:48:31;;;;;;;23.25;12.98;;;;;;;14.34;78.55;100121.63;8493085;33;20141;-73
2021/08/19 05:53:34;;;;;;;24.90;14.02;;;;;;;14.30;78.56;100114.81;8485830;33;20439;-73
2021/08/19 05:58:37;;;;;;;21.30;12.60;;;;;;;14.46;78.02;100113.31;8537221;33;20517;-73
2021/08/19 06:03:42;;;;;;;25.27;12.77;;;;;;;14.60;77.14;100110.88;8541253;33;20565;-73
2021/08/19 06:08:45;;;;;;;19.63;11.45;;;;;;;14.47;77.31;100125.81;8544046;33;20175;-73
2021/08/19 06:13:48;;;;;;;20.48;11.45;;;;;;;14.66;76.55;100136.44;8544297;33;20202;-73
2021/08/19 06:18:52;;;;;;;19.50;11.30;;;;;;;14.79;76.10;100139.59;8541917;33;20144;-73
2021/08/19 06:23:55;;;;;;;23.50;13.25;;;;;;;14.92;75.64;100149.13;8541401;33;20550;-74
2021/08/19 06:28:58;;;;;;;20.77;11.90;;;;;;;15.16;75.18;100143.03;8542399;33;20441;-74
2021/08/19 06:34:03;;;;;;;20.63;12.45;;;;;;;15.19;74.55;100131.88;8530329;33;21042;-74
2021/08/19 06:39:06;;;;;;;20.48;11.25;;;;;;;15.11;75.19;100132.72;8568667;33;20140;-73
2021/08/19 06:44:09;;;;;;;18.38;12.07;;;;;;;15.20;74.59;100139.84;8589426;33;20235;-74
2021/08/19 06:49:13;;;;;;;23.10;12.20;;;;;;;15.34;74.72;100138.44;8586034;33;20673;-74
2021/08/19 06:54:16;;;;;;;24.35;12.43;;;;;;;15.27;75.53;100137.34;8586937;33;20458;-74
2021/08/19 06:59:19;;;;;;;22.65;11.57;;;;;;;15.28;76.16;100130.94;8584544;33;20482;-74
2021/08/19 07:04:23;;;;;;;23.60;13.40;;;;;;;15.41;77.18;100131.38;8583991;33;20467;-74
2021/08/19 07:09:26;;;;;;;23.37;13.00;;;;;;;15.58;76.95;100142.28;8584131;33;20550;-74
2021/08/19 07:14:29;;;;;;;21.98;12.98;;;;;;;15.47;77.32;100138.00;8576463;33;20540;-73
2021/08/19 07:19:34;;;;;;;27.05;15.25;;;;;;;15.07;79.43;100144.84;8526508;33;20561;-73
2021/08/19 07:24:37;;;;;;;31.70;17.63;;;;;;;15.26;80.18;100146.47;8526706;33;20134;-74
2021/08/19 07:29:40;;;;;;;31.67;16.95;;;;;;;15.63;79.30;100146.19;8526473;33;20236;-74
2021/08/19 07:34:44;;;;;;;27.73;14.27;;;;;;;15.85;78.00;100139.34;8547215;33;20148;-74
2021/08/19 07:39:47;;;;;;;27.77;13.40;;;;;;;16.08;77.06;100144.13;8567492;33;20457;-74
2021/08/19 07:44:50;;;;;;;24.88;13.77;;;;;;;16.21;76.82;100146.34;8560572;33;20533;-73
2021/08/19 07:49:55;;;;;;;25.92;12.43;;;;;;;16.21;76.67;100147.22;8538481;33;20445;-74
2021/08/19 07:54:58;;;;;;;25.35;14.68;;;;;;;16.11;77.44;100147.34;8533993;33;20187;-74
2021/08/19 08:00:01;;;;;;;28.80;15.23;;;;;;;16.24;77.28;100157.72;8535836;33;20279;-74
2021/08/19 08:05:08;;;;;;;22.45;13.80;;;;;;;16.49;76.13;100158.59;8545130;33;20452;-74
2021/08/19 08:10:12;;;;;;;29.75;16.13;;;;;;;16.40;76.95;100153.34;8539323;33;20480;-74
2021/08/19 08:15:15;;;;;;;27.98;13.88;;;;;;;16.05;76.65;100156.13;8524661;33;20511;-74
2021/08/19 08:20:20;;;;;;;32.50;17.33;;;;;;;16.47;76.19;100165.22;8525557;33;20455;-74
2021/08/19 08:25:23;;;;;;;24.23;12.55;;;;;;;16.38;76.33;100158.94;8524349;33;20175;-74
2021/08/19 08:30:28;;;;;;;22.77;11.98;;;;;;;16.23;76.50;100164.13;8524497;33;20600;-74
2021/08/19 08:35:37;;;;;;;25.70;12.68;;;;;;;16.11;77.49;100168.16;8527426;33;20520;-74
2021/08/19 08:40:44;;;;;;;27.15;16.13;;;;;;;15.79;79.80;100171.63;8528047;33;20148;-74
2021/08/19 08:45:49;;;;;;;23.67;14.48;;;;;;;15.65;81.32;100175.78;8520941;33;20186;-74
2021/08/19 08:50:56;;;;;;;32.20;17.35;;;;;;;15.39;83.75;100173.16;8518773;33;20141;-74
2021/08/19 08:55:59;;;;;;;29.45;15.35;;;;;;;15.84;83.09;100167.41;8519396;33;20428;-74
2021/08/19 09:01:03;;;;;;;28.98;15.13;;;;;;;16.43;81.77;100169.25;8525242;33;20453;-74
2021/08/19 09:06:09;;;;;;;31.60;17.30;;;;;;;16.45;79.65;100180.78;8531721;33;20149;-74
2021/08/19 09:11:12;;;;;;;30.17;15.65;;;;;;;16.22;79.44;100175.16;8528649;33;20205;-74
2021/08/19 09:16:18;;;;;;;29.08;13.75;;;;;;;16.15;79.71;100186.66;8522372;33;20155;-74
2021/08/19 09:21:25;;;;;;;23.92;12.65;;;;;;;16.23;80.50;100184.97;8521741;33;20147;-74
2021/08/19 09:26:28;;;;;;;18.95;10.05;;;;;;;15.50;83.44;100194.53;8527162;33;20661;-74
2021/08/19 09:31:37;;;;;;;17.85;10.15;;;;;;;15.39;85.48;100189.38;8538910;33;20625;-74
2021/08/19 09:36:41;;;;;;;11.85;6.90;;;;;;;15.58;86.38;100183.72;8544446;33;20220;-74
2021/08/19 09:41:52;;;;;;;14.45;8.82;;;;;;;15.69;85.77;100182.59;8545171;33;21028;-74
2021/08/19 09:46:56;;;;;;;18.17;10.63;;;;;;;15.90;85.20;100190.28;8541341;33;20145;-74
2021/08/19 09:52:02;;;;;;;14.80;8.20;;;;;;;15.98;83.94;100182.19;8542896;33;20226;-74
2021/08/19 09:57:07;;;;;;;14.05;8.23;;;;;;;16.05;83.52;100185.09;8542433;33;20479;-74
2021/08/19 10:02:11;;;;;;;14.88;9.07;;;;;;;15.92;82.61;100189.09;8540225;33;20144;-74
2021/08/19 10:07:15;;;;;;;14.63;9.05;;;;;;;15.68;82.44;100197.13;8537101;33;20239;-73
2021/08/19 10:12:18;;;;;;;18.40;10.65;;;;;;;15.74;82.68;100198.34;8542547;33;20402;-74
2021/08/19 10:17:22;;;;;;;11.57;7.00;;;;;;;16.18;81.99;100198.16;8532916;33;20149;-74
2021/08/19 10:22:26;;;;;;;15.85;8.07;;;;;;;16.29;81.03;100182.47;8528601;33;20271;-74
2021/08/19 10:27:31;;;;;;;15.00;8.07;;;;;;;16.09;81.07;100190.00;8527656;33;20621;-73
2021/08/19 10:32:37;;;;;;;13.80;8.30;;;;;;;15.96;81.38;100189.63;8530270;33;20227;-74
2021/08/19 10:38:03;;;;;;;21.27;10.02;;;;;;;16.54;80.48;100193.38;8525289;33;20215;-74
2021/08/19 10:43:45;;;;;;;19.65;10.80;;;;;;;16.42;79.20;100189.25;8529122;33;20137;-73
2021/08/19 10:48:51;;;;;;;18.38;11.00;;;;;;;16.00;80.45;100195.56;8527561;33;20479;-73
2021/08/19 10:53:57;;;;;;;24.23;12.50;;;;;;;16.06;81.66;100186.78;8525877;33;20431;-73
2021/08/19 10:59:28;;;;;;;20.10;12.18;;;;;;;16.63;78.26;100194.22;8527636;33;20177;-73
2021/08/19 11:04:42;;;;;;;26.08;14.85;;;;;;;16.98;77.60;100190.31;8527261;33;20563;-73
2021/08/19 11:09:53;;;;;;;25.45;14.48;;;;;;;17.42;74.88;100190.78;8528407;33;20587;-74
2021/08/19 11:14:57;;;;;;;27.23;13.27;;;;;;;17.56;74.25;100186.50;8526485;33;20298;-74
2021/08/19 11:20:23;;;;;;;22.97;12.73;;;;;;;16.98;74.66;100190.31;8526486;33;20556;-73
2021/08/19 11:25:28;;;;;;;24.30;12.88;;;;;;;17.14;74.00;100192.16;8526029;33;20552;-73
2021/08/19 11:30:32;;;;;;;24.48;13.70;;;;;;;16.79;74.64;100197.78;8527231;33;20231;-73
2021/08/19 11:35:37;;;;;;;30.95;16.50;;;;;;;17.16;74.14;100199.13;8525478;33;20418;-73
2021/08/19 11:40:44;;;;;;;33.25;17.05;;;;;;;17.88;71.62;100193.66;8546451;33;20517;-73
2021/08/19 11:45:49;;;;;;;35.22;16.05;;;;;;;17.41;72.95;100210.78;8526385;33;20533;-74
2021/08/19 11:50:54;;;;;;;28.58;14.50;;;;;;;16.41;75.60;100211.97;8526475;33;20679;-73
2021/08/19 11:56:12;;;;;;;28.98;12.98;;;;;;;16.72;75.23;100206.75;8521511;33;20157;-74
2021/08/19 12:01:15;;;;;;;32.13;16.20;;;;;;;16.79;74.95;100218.63;8524882;33;20261;-74
2021/08/19 12:06:19;;;;;;;33.40;18.33;;;;;;;16.84;74.34;100213.56;8524719;33;20145;-73
2021/08/19 12:11:26;;;;;;;34.67;16.83;;;;;;;17.14;73.59;100206.63;8524697;33;20420;-73
2021/08/19 12:16:49;;;;;;;31.30;17.17;;;;;;;16.43;79.07;100210.78;8522730;33;20413;-74
2021/08/19 12:22:00;;;;;;;28.58;16.88;;;;;;;16.22;81.86;100215.78;8523697;33;20145;-73
2021/08/19 12:27:07;;;;;;;32.88;15.82;;;;;;;16.79;79.27;100219.47;8523114;33;20176;-74
2021/08/19 12:32:22;;;;;;;29.25;15.63;;;;;;;17.57;75.15;100215.31;8523735;33;20461;-74
2021/08/19 12:37:26;;;;;;;25.90;14.73;;;;;;;17.96;71.97;100213.66;8523706;33;20550;-73
2021/08/19 12:42:36;;;;;;;25.77;15.85;;;;;;;18.15;71.43;100224.13;8526049;33;20617;-74
2021/08/19 12:47:41;;;;;;;29.73;15.05;;;;;;;18.41;70.21;100203.94;8522717;33;20155;-74
2021/08/19 12:52:46;;;;;;;28.73;14.52;;;;;;;17.81;71.31;100211.69;8530376;33;20454;-74
2021/08/19 12:57:54;;;;;;;28.55;15.57;;;;;;;17.48;72.41;100214.50;8534053;33;20423;-73
2021/08/19 13:02:59;;;;;;;23.17;12.13;;;;;;;17.76;71.60;100200.50;8518694;33;20551;-74
2021/08/19 13:08:03;;;;;;;23.08;11.57;;;;;;;17.88;71.26;100211.81;8521515;33;21318;-74
2021/08/19 13:13:08;;;;;;;26.60;12.65;;;;;;;17.33;73.21;100209.97;8520028;33;20409;-74
2021/08/19 13:18:13;;;;;;;26.80;13.15;;;;;;;17.30;73.54;100215.72;8517975;33;20276;-74
2021/08/19 13:23:16;;;;;;;24.02;13.70;;;;;;;17.49;73.02;100212.63;8519052;33;20227;-71
2021/08/19 13:28:20;;;;;;;26.27;12.70;;;;;;;17.76;71.00;100224.94;8521764;33;20695;-74
2021/08/19 13:33:23;;;;;;;23.52;14.73;;;;;;;17.41;72.46;100229.78;8523937;33;21075;-74
2021/08/19 13:38:26;;;;;;;18.60;10.77;;;;;;;16.86;77.05;100237.78;8538785;33;20417;-74
2021/08/19 13:43:31;;;;;;;24.77;14.27;;;;;;;16.24;83.05;100228.16;8538279;33;20537;-74
2021/08/19 13:48:34;;;;;;;26.38;12.65;;;;;;;16.36;83.11;100229.56;8567246;33;20270;-74
2021/08/19 13:53:37;;;;;;;27.50;14.55;;;;;;;16.78;81.41;100231.34;8556378;33;20678;-74
2021/08/19 13:58:42;;;;;;;21.50;12.27;;;;;;;17.16;79.38;100226.25;8544991;33;20719;-75
2021/08/19 14:03:45;;;;;;;25.10;13.77;;;;;;;17.20;78.27;100234.94;8549198;33;20539;-73
2021/08/19 14:08:48;;;;;;;21.77;12.70;;;;;;;16.96;77.46;100228.47;8532752;33;20660;-73
2021/08/19 14:13:53;;;;;;;20.40;11.98;;;;;;;16.84;77.62;100228.94;8531004;33;20518;-73
2021/08/19 14:18:56;;;;;;;21.45;12.13;;;;;;;16.93;77.70;100238.81;8524197;33;20255;-73
2021/08/19 14:24:00;;;;;;;20.10;12.23;;;;;;;16.79;77.89;100224.06;8523196;33;20148;-74
2021/08/19 14:29:04;;;;;;;23.48;13.63;;;;;;;16.57;78.79;100220.97;8523056;33;20246;-73
2021/08/19 14:34:07;;;;;;;21.17;11.02;;;;;;;16.54;78.50;100220.47;8521897;33;20461;-73
2021/08/19 14:39:11;;;;;;;22.08;12.60;;;;;;;16.06;82.39;100225.56;8522680;33;20522;-73
2021/08/19 14:44:16;;;;;;;26.98;14.48;;;;;;;15.42;87.44;100230.50;8525203;33;20553;-73
2021/08/19 14:49:19;;;;;;;28.80;15.60;;;;;;;15.59;87.68;100233.31;8523929;33;20230;-73
2021/08/19 14:54:22;;;;;;;31.05;15.45;;;;;;;15.59;88.18;100234.16;8519773;33;20141;-73
2021/08/19 14:59:26;;;;;;;29.73;14.73;;;;;;;15.46;87.90;100236.44;8519661;33;20190;-73
2021/08/19 15:04:30;;;;;;;37.92;18.38;;;;;;;15.54;88.84;100230.22;8534672;33;20640;-73
2021/08/19 15:09:33;;;;;;;5.15;2.08;;;;;;;15.26;88.57;100238.47;8546927;33;20155;-73
2021/08/19 15:14:37;;;;;;;3.45;2.05;;;;;;;15.39;88.78;100240.81;8552092;33;20705;-74
2021/08/19 15:19:40;;;;;;;1.33;1.20;;;;;;;15.40;89.40;100245.19;8544976;33;20522;-74
2021/08/19 15:24:46;;;;;;;2.22;2.13;;;;;;;15.18;89.90;100247.38;8498732;33;20466;-74
2021/08/19 15:29:52;;;;;;;2.13;1.95;;;;;;;15.01;89.90;100249.13;8486263;33;20783;-73
2021/08/19 15:34:55;;;;;;;2.08;1.45;;;;;;;15.01;89.69;100259.94;8494012;33;20519;-73
2021/08/19 15:40:00;;;;;;;2.20;2.00;;;;;;;15.19;89.58;100250.94;8530047;33;20430;-73
2021/08/19 15:45:06;;;;;;;3.28;2.30;;;;;;;15.69;89.12;100243.00;8516299;33;20223;-73
2021/08/19 15:50:10;;;;;;;8.05;2.30;;;;;;;15.62;86.60;100244.66;8523317;33;20160;-73
2021/08/19 15:55:13;;;;;;;1.02;1.02;;;;;;;15.66;85.94;100237.91;8525952;33;20188;-73
2021/08/19 16:00:18;;;;;;;1.30;1.30;;;;;;;15.20;86.56;100250.78;8529437;33;20245;-73
2021/08/19 16:05:21;;;;;;;1.83;1.70;;;;;;;15.15;87.75;100244.16;8520790;33;20959;-73
2021/08/19 16:10:24;;;;;;;1.17;1.15;;;;;;;15.32;87.31;100248.66;8519863;33;20454;-73
2021/08/19 16:15:29;;;;;;;3.75;1.45;;;;;;;15.36;87.25;100254.63;8522027;33;20578;-74
2021/08/19 16:20:32;;;;;;;2.55;2.35;;;;;;;15.37;87.11;100253.63;8524858;33;20159;-73
2021/08/19 16:25:35;;;;;;;2.10;1.90;;;;;;;15.41;86.43;100255.88;8526424;33;20467;-73
2021/08/19 16:30:40;;;;;;;3.45;1.77;;;;;;;15.30;87.03;100257.94;8526366;33;20594;-73
2021/08/19 16:35:44;;;;;;;1.25;0.98;;;;;;;15.53;85.69;100255.63;8445150;27;20696;-72
2021/08/19 16:40:48;;;;;;;2.50;2.28;;;;;;;15.37;86.34;100254.47;8413797;34;20477;-72
2021/08/19 16:45:52;;;;;;;0.88;0.88;;;;;;;15.42;86.34;100252.16;8414310;34;20926;-72
2021/08/19 16:50:55;;;;;;;3.00;1.98;;;;;;;15.27;86.32;100259.94;8410310;34;20503;-71
2021/08/19 16:55:59;;;;;;;2.22;1.10;;;;;;;15.25;86.07;100262.00;8407549;34;20422;-72
2021/08/19 17:01:03;;;;;;;3.40;1.38;;;;;;;15.30;85.08;100271.47;8411521;34;20219;-72
2021/08/19 17:06:07;;;;;;;1.00;0.98;;;;;;;15.06;85.31;100262.19;8433417;34;20166;-72
2021/08/19 17:11:11;;;;;;;5.45;1.33;;;;;;;15.14;83.89;100273.06;8412079;34;21115;-72
2021/08/19 17:16:15;;;;;;;0.88;0.88;;;;;;;15.20;84.24;100275.13;8410759;34;20523;-72
2021/08/19 17:21:18;;;;;;;3.80;0.90;;;;;;;15.12;83.84;100268.81;8409995;34;20560;-73
2021/08/19 17:26:21;;;;;;;1.63;1.52;;;;;;;14.96;83.81;100264.09;8406272;34;20526;-71
2021/08/19 17:31:27;;;;;;;1.63;1.52;;;;;;;15.09;83.40;100272.69;8406157;34;20502;-72
2021/08/19 17:36:30;;;;;;;1.25;1.15;;;;;;;15.29;83.64;100267.91;8384452;34;20294;-72
2021/08/19 17:41:33;;;;;;;0.50;0.50;;;;;;;15.18;83.44;100271.72;8355560;34;20169;-71
2021/08/19 17:46:38;;;;;;;0.98;0.98;;;;;;;15.30;83.46;100266.91;8357534;34;20521;-73
2021/08/19 17:51:41;;;;;;;0.57;0.57;;;;;;;15.09;82.94;100258.31;8358115;34;20423;-72
2021/08/19 17:56:44;;;;;;;1.55;1.35;;;;;;;15.19;82.81;100257.22;8358033;34;20529;-72
2021/08/19 18:01:49;;;;;;;0.98;0.98;;;;;;;15.25;83.30;100259.28;8359849;34;20552;-72
2021/08/19 18:06:52;;;;;;;0.85;0.80;;;;;;;15.19;82.86;100264.47;8357632;34;20560;-72
2021/08/19 18:11:55;;;;;;;0.95;0.80;;;;;;;15.14;82.85;100262.25;8356306;34;20514;-74
2021/08/19 18:17:00;;;;;;;0.68;0.68;;;;;;;15.08;82.97;100257.44;8356600;34;20522;-73
2021/08/19 18:22:04;;;;;;;1.60;1.33;;;;;;;15.05;82.62;100260.47;8381443;34;20851;-73
2021/08/19 18:27:07;;;;;;;2.95;1.55;;;;;;;15.05;82.77;100268.56;8381502;34;20531;-72
2021/08/19 18:32:12;;;;;;;1.85;1.50;;;;;;;15.18;82.27;100276.28;8386357;34;20464;-73
2021/08/19 18:37:15;;;;;;;1.88;1.77;;;;;;;15.21;82.74;100284.94;8384627;34;20165;-73
2021/08/19 18:42:18;;;;;;;0.98;0.93;;;;;;;15.10;82.57;100287.91;8385462;34;20608;-72
2021/08/19 18:47:23;;;;;;;1.83;1.73;;;;;;;14.99;82.03;100291.69;8383250;34;21072;-73
2021/08/19 18:52:26;;;;;;;1.92;1.23;;;;;;;15.02;82.19;100287.81;8383310;34;20644;-73
2021/08/19 18:57:30;;;;;;;2.10;1.95;;;;;;;15.08;82.43;100289.91;8383139;34;20427;-72
2021/08/19 19:02:34;;;;;;;2.63;1.67;;;;;;;15.08;82.66;100297.16;8378729;34;20294;-73
2021/08/19 19:07:37;;;;;;;1.02;1.02;;;;;;;15.10;82.36;100304.13;8369277;34;20469;-73
2021/08/19 19:12:41;;;;;;;1.35;1.25;;;;;;;14.94;82.06;100307.53;8360916;34;20535;-73
2021/08/19 19:17:45;;;;;;;4.30;2.58;;;;;;;14.77;81.74;100303.81;8349848;34;20432;-73
2021/08/19 19:22:49;;;;;;;2.45;1.85;;;;;;;15.03;82.01;100309.31;8375714;34;20249;-74
2021/08/19 19:27:53;;;;;;;1.10;1.02;;;;;;;14.98;82.11;100306.22;8385989;34;20440;-73
2021/08/19 19:32:58;;;;;;;1.00;1.00;;;;;;;14.82;81.77;100303.38;8393096;34;21273;-73
2021/08/19 19:38:01;;;;;;;0.50;0.50;;;;;;;14.93;81.73;100310.41;8382783;34;20623;-73
2021/08/19 19:43:04;;;;;;;5.55;2.25;;;;;;;14.79;81.48;100309.94;8359025;34;20151;-73
2021/08/19 19:48:08;;;;;;;6.32;2.03;;;;;;;14.98;81.62;100306.22;8381253;34;20538;-73
2021/08/19 19:53:12;;;;;;;3.20;1.20;;;;;;;15.02;81.52;100307.59;8362096;34;20477;-73
2021/08/19 19:58:15;;;;;;;3.80;1.95;;;;;;;15.00;81.70;100312.34;8371021;34;20246;-74
2021/08/19 20:03:20;;;;;;;1.95;1.83;;;;;;;15.07;81.17;100314.41;8360367;34;20238;-73
2021/08/19 20:08:23;;;;;;;2.35;2.20;;;;;;;15.13;81.05;100325.44;8358828;34;20530;-73
2021/08/19 20:13:26;;;;;;;2.28;1.33;;;;;;;15.12;80.84;100323.75;8355659;34;20534;-74
2021/08/19 20:18:31;;;;;;;2.53;1.95;;;;;;;15.15;81.29;100319.91;8352429;34;20624;-74
2021/08/19 20:23:34;;;;;;;0.85;0.85;;;;;;;15.11;80.72;100330.19;8352274;34;20194;-73
2021/08/19 20:28:37;;;;;;;2.25;1.17;;;;;;;15.12;80.10;100331.03;8351769;34;20302;-73
2021/08/19 20:33:41;;;;;;;1.05;0.95;;;;;;;15.02;79.87;100328.41;8348704;34;20155;-73
2021/08/19 20:38:44;;;;;;;1.27;1.25;;;;;;;15.08;80.12;100335.88;8349627;34;20502;-74
2021/08/19 20:43:47;;;;;;;1.17;1.17;;;;;;;15.24;79.84;100337.91;8349289;34;20437;-75
2021/08/19 20:48:52;;;;;;;0.93;0.93;;;;;;;15.20;78.86;100348.19;8348454;34;20549;-73
2021/08/19 20:53:55;;;;;;;2.53;1.73;;;;;;;15.15;79.27;100342.38;8350194;34;20146;-73
2021/08/19 20:58:58;;;;;;;2.72;2.17;;;;;;;15.17;79.73;100340.38;8350728;34;20194;-73
2021/08/19 21:04:02;;;;;;;1.52;1.42;;;;;;;15.07;79.67;100347.72;8351600;34;20198;-74
2021/08/19 21:09:05;;;;;;;2.25;1.52;;;;;;;15.03;79.98;100341.78;8349890;34;20426;-74
2021/08/19 21:14:08;;;;;;;1.15;1.15;;;;;;;15.16;79.98;100344.06;8344777;34;20586;-74
2021/08/19 21:19:16;;;;;;;1.40;1.00;;;;;;;15.01;80.34;100357.31;8349633;34;20440;-74
2021/08/19 21:24:19;;;;;;;1.40;1.38;;;;;;;15.00;80.23;100346.63;8348501;34;20560;-74
2021/08/19 21:29:22;;;;;;;5.80;2.53;;;;;;;15.12;79.99;100347.28;8356633;34;21148;-74
2021/08/19 21:34:27;;;;;;;0.60;0.60;;;;;;;15.02;80.54;100367.09;8380999;34;21000;-74
2021/08/19 21:39:30;;;;;;;2.50;1.55;;;;;;;15.00;80.39;100371.84;8422850;34;20288;-74
2021/08/19 21:44:33;;;;;;;4.22;2.67;;;;;;;14.93;80.63;100359.09;8418894;34;20197;-74
2021/08/19 21:49:37;;;;;;;3.08;2.47;;;;;;;14.88;81.21;100366.81;8412511;34;20698;-74
2021/08/19 21:54:41;;;;;;;1.50;1.02;;;;;;;14.92;80.43;100365.47;8406128;34;20233;-74
2021/08/19 21:59:44;;;;;;;3.40;2.45;;;;;;;14.77;80.75;100371.41;8409213;34;20282;-74
2021/08/19 22:04:48;;;;;;;1.75;1.65;;;;;;;14.92;80.41;100369.06;8409577;34;20879;-74
2021/08/19 22:09:51;;;;;;;4.23;1.40;;;;;;;14.73;80.69;100366.47;8409026;34;20429;-74
2021/08/19 22:14:54;;;;;;;1.42;1.33;;;;;;;14.87;80.11;100360.56;8408564;34;20413;-74
2021/08/19 22:19:59;;;;;;;1.38;1.38;;;;;;;14.67;80.24;100358.97;8404932;34;20459;-74
2021/08/19 22:25:02;;;;;;;1.60;1.48;;;;;;;14.83;79.73;100367.25;8404325;34;20673;-75
2021/08/19 22:30:07;;;;;;;19.10;2.92;;;;;;;14.81;80.06;100361.16;8408569;34;20435;-74
2021/08/19 22:35:12;;;;;;;3.85;2.80;;;;;;;14.75;80.14;100359.03;8431668;27;20428;-74
2021/08/19 22:40:16;;;;;;;3.55;3.30;;;;;;;14.83;79.38;100375.38;8413999;34;20418;-74
2021/08/19 22:45:19;;;;;;;2.75;2.53;;;;;;;14.83;79.90;100365.38;8418147;34;20214;-74
2021/08/19 22:50:24;;;;;;;5.55;1.90;;;;;;;14.87;79.71;100363.25;8414377;34;20173;-75
2021/08/19 22:55:28;;;;;;;2.03;1.80;;;;;;;14.87;79.74;100370.53;8413840;34;20460;-74
2021/08/19 23:00:31;;;;;;;3.38;3.08;;;;;;;14.81;79.77;100366.56;8409172;34;20244;-73
2021/08/19 23:05:35;;;;;;;2.00;1.90;;;;;;;14.79;80.19;100363.16;8405317;34;20457;-72
2021/08/19 23:10:39;;;;;;;4.15;1.88;;;;;;;14.78;80.16;100367.72;8403281;34;25520;-73
2021/08/19 23:15:42;;;;;;;1.98;1.75;;;;;;;14.72;80.42;100367.47;8401328;34;20146;-73
2021/08/19 23:20:46;;;;;;;1.25;1.15;;;;;;;14.60;80.73;100369.53;8401642;34;20471;-72